Saturday, August 27, 2016
06:32 UTC
  |  Log In   |  Register Free
Airport Search:

Boulder Municipal Airport
(KBDU)

Boulder Municipal Airport Diagram
No Airport Diagram Available

FAA data valid effective Jul 21 2016 - Sep 15 2016 (unless otherwise noted).

 
 
 
 
 
 
 
 
 
 
 
 
 
 
Summary: Boulder Municipal (BDU)

Weather Summary


METAR for BDU is not available. Closest METAR is for
METAR

METAR KBDU 270615Z 26004KT 10SM CLR 15/10 A3013 RMK AO2 LTG DSNT NE

METAR KBDU 270555Z 25004KT 10SM CLR 15/09 A3014 RMK AO2

METAR KBDU 270535Z 25003KT 10SM CLR 15/08 A3014 RMK AO2

METAR KBDU 270515Z 00000KT 10SM CLR 15/08 A3014 RMK AO2

METAR KBDU 270455Z 29003KT 10SM CLR 15/09 A3014 RMK AO2

METAR KBDU 270435Z 00000KT 10SM CLR 15/09 A3014 RMK AO2

METAR KBDU 270415Z 34003KT 10SM CLR 15/09 A3014 RMK AO2

METAR KBDU 270355Z 36004KT 10SM CLR 15/08 A3014 RMK AO2

METAR KBDU 270335Z 34004KT 10SM CLR 16/08 A3014 RMK AO2

METAR K0CO 270620Z 27010G20KT 10SM CLR 01/M05 A3052 RMK AO2 LTG DSNT NE AND SW

METAR KAPA 270553Z 32004KT 10SM FEW220 14/07 A3015 RMK AO2 SLP157 T01440067 10239 20139 53001

METAR KBJC 270615Z 33010KT 10SM CLR 15/09 A3015 RMK AO2 LTG DSNT NE AND SW

TAF for BDU is not available.
TAF

KBJC - TAF KBJC 270531Z 2706/2806 32010KT P6SM SCT200

KBJC - FM270700 27006KT P6SM BKN200

KBJC - FM271400 VRB05KT P6SM FEW120 SCT220

KBJC - FM272000 07008KT P6SM SCT080 BKN180

KBJC - FM280000 25011KT P6SM FEW080 BKN180 =

KDEN - TAF KDEN 270531Z 2706/2812 29010KT P6SM SCT200

KDEN - FM270700 VRB06KT P6SM SCT200

KDEN - FM270900 20010KT P6SM FEW120 BKN200

KDEN - FM271400 33006KT P6SM VCFG FEW003 SCT200

KDEN - TEMPO 2714/2716 1SM BR BKN003

KDEN - FM271700 03007KT P6SM SCT200

KDEN - FM272100 07006KT P6SM SCT080 BKN200

KDEN - FM280100 21008KT P6SM SCT080 BKN200 =

KBKF - TAF AMD KBKF 270404Z 2704/2807 10009KT 9999 BKN150 QNH3012INS

KBKF - BECMG 2707/2708 22009KT 9999 SCT150 QNH3014INS

KBKF - BECMG 2723/2724 24009KT 9999 FEW100 BKN150 QNH3010INS

KBKF - BECMG 2802/2803 24012G22KT 9999 SCT100 BKN150 QNH3015INS

KBKF - TEMPO 2805/2807 -SHRA VCTS BKN100CB TX27/2723Z TN11/2713Z =

KAPA - TAF KAPA 270531Z 2706/2806 36010KT P6SM SCT220

KAPA - FM270800 20009KT P6SM BKN220

KAPA - FM271400 VRB06KT P6SM FEW120 SCT220

KAPA - FM272000 03007KT P6SM SCT080 BKN180

KAPA - FM280100 21008KT P6SM SCT080 BKN200 =

GlobalAir.com is loading additional information.
 Current Weather at BDU
59.0 F° (15.0 C°)
Fair
West winds at 3.5 mph
Pressure:
30.14 in
Humidity:
68%
Wind:
West at 3.5 MPH (3 KT)
Dew Point:
48.2 F° (9.0 C°)
Visibility:
10.00 mi
BDU NOAA Radar

Runway Summary

ID Dimensions Surface Instrument Approaches
08/26 75 ft x 4100 ft Asphalt, Good Condition N/A
08G/26G 20 ft x 4100 ft Asphalt or Turf, Fair Condition N/A

Communications Summary


CTAF122.725
UNICOM122.725
ATISN/A
WX AWOS-3
CLEARANCE DELIVERYN/A

Terminal Procedures Summary


No terminal procedures available for BDU





Closest Alternate Airports with Instrument Procedures

KLMO - Vance Brand - 9.2 nm NE from BDU

KEIK - Erie Municipal - 9.6 nm SE from BDU

KBJC - Rocky Mountain Metropolitan - 10.7 nm SE from BDU

KFNL - Fort Collins-Loveland Municipal - 30.7 nm NE from BDU

KDEN - Denver International - 31.8 nm SE from BDU

KAPA - Centennial - 38.1 nm SE from BDU

KFTG - Front Range - 40.3 nm SE from BDU

KGXY - Greeley-Weld County - 41.7 nm NE from BDU

K20V - Mc Elroy Airfield - 60.5 nm NW from BDU

KCYS - Cheyenne Regional/Jerry Olson Field - 80.2 nm NE from BDU

Find All Airport Services Find A Hotel Find A Rental Car Find A Golf Course Find A Restaurant $100 Hamburger



FBO's on the Field
FBO Company Facility Photos Services Transportation Aviation Fuel Prices: Prices include tax
Catering Weather Repair Courtesy Rental Type 100LL JetA JetA+ MOGAS 8087
 
Journeys Aviation

Currently rated 4.8 by 2 people
FS:Phillips 66
Last Updated: Aug-11
Login to update fuel prices
SS:
Contact Journeys AviationMore FBO Information
 
Add another FBO Facility Photos Catering Weather Repair Courtesy Rental Type 100LL JetA JetA+ MOGAS 8087
Services Transportation Aviation Fuel Prices: Prices include tax


model-print
model-print
model-print
model-print